Weldon, Arkansas
Current Conditions -  °F | °C
As of 4:56 PM on Wednesday 22 Oct 2014 (Local Time) from KM19 Reporting Station
Haze Haze  
Wind Chill: 67°   Ceiling: Unl
Heat Index: 67°   Visibility: 3mi
Dew Point: 44°   Wind: 9mph
Humidity: 43%   Direction: 60°ENE
Pressure: 30.2"   Gusts: NA
Location:  35.5678°N, 91.2073°W
Report Text: KM19 222156Z AUTO 06008KT 3SM HZ CLR 19/07 A3020 RMK AO2 T01940066 RAE32 P0000 SLP225
Loading
Personal Weather Stations






























Interactive Weather Map
Tropical Storm Tracking
New forecast layout! Learn more

10-Day Weather Forecast

Advertisements
Track Severe Weather on mobile